CMB818 Details

Departure: Ramstein Air Force Base (ETAR)
Arrival: RAF Mildenhall (EGUN)
Notes: USTRANSCOM CONTRACT FLIGHT


Current Weather Information
ETAR 250956Z AUTO 33007KT 9999 FEW150 SCT200 19/08 A3002 RMK AO2 SLP165 T01870081 $
EGUN 251041Z AUTO 32008KT 9999 SCT039 BKN049 18/10 A3005 RMK AO2 SLP179 $